createdAt,value
2022-11-08T00:00:44.226Z,7.89
2022-11-08T00:03:11.555Z,7.92
2022-11-08T00:05:57.688Z,8.03
2022-11-08T00:08:43.696Z,8.12
2022-11-08T00:11:29.711Z,8.18
2022-11-08T00:14:00.395Z,8.20
2022-11-08T00:16:29.483Z,8.23
2022-11-08T00:18:57.033Z,8.21
2022-11-08T00:21:24.228Z,8.22
2022-11-08T00:23:51.364Z,8.18
2022-11-08T00:26:18.558Z,8.22
2022-11-08T00:28:45.793Z,8.27
2022-11-08T00:31:12.997Z,8.28
2022-11-08T00:33:40.166Z,8.32
2022-11-08T00:36:07.752Z,8.33
2022-11-08T00:38:34.957Z,8.27
2022-11-08T00:41:02.146Z,8.24
2022-11-08T00:43:29.289Z,8.17
2022-11-08T00:45:56.454Z,8.17
2022-11-08T00:48:23.599Z,8.19
2022-11-08T00:50:50.900Z,8.18
2022-11-08T00:53:18.396Z,8.19
2022-11-08T00:55:45.623Z,8.26
2022-11-08T00:58:12.774Z,8.32
2022-11-08T01:00:40.096Z,8.34
2022-11-08T01:03:19.419Z,8.37
2022-11-08T01:05:48.612Z,8.35
2022-11-08T01:08:17.809Z,8.36
2022-11-08T01:10:50.487Z,8.43
2022-11-08T01:13:19.179Z,8.56
2022-11-08T01:15:47.623Z,8.72
2022-11-08T01:18:17.800Z,8.88
2022-11-08T01:20:49.076Z,8.72
2022-11-08T01:23:20.242Z,8.60
2022-11-08T01:25:48.857Z,8.54
2022-11-08T01:28:17.557Z,8.50
2022-11-08T01:30:46.424Z,8.51
2022-11-08T01:33:15.216Z,8.51
2022-11-08T01:35:46.025Z,8.47
2022-11-08T01:38:14.010Z,8.48
2022-11-08T01:40:49.377Z,8.45
2022-11-08T01:43:25.287Z,8.44
2022-11-08T01:46:39.987Z,8.44
2022-11-08T01:49:27.574Z,8.40
2022-11-08T01:52:16.119Z,8.32
2022-11-08T01:55:16.639Z,8.24
2022-11-08T01:58:15.989Z,8.19
2022-11-08T02:00:44.147Z,8.20
2022-11-08T02:03:18.770Z,8.15
2022-11-08T02:05:47.351Z,8.07
2022-11-08T02:08:42.505Z,8.01
2022-11-08T02:11:15.184Z,7.99
2022-11-08T02:13:42.522Z,8.01
2022-11-08T02:16:16.867Z,8.06
2022-11-08T02:18:48.032Z,8.10
2022-11-08T02:21:47.109Z,8.08
2022-11-08T02:24:14.923Z,8.01
2022-11-08T02:26:44.555Z,8.06
2022-11-08T02:29:33.692Z,8.07
2022-11-08T02:32:04.197Z,8.11
2022-11-08T02:34:43.045Z,7.99
2022-11-08T02:37:14.432Z,7.88
2022-11-08T02:39:42.982Z,7.88
2022-11-08T02:42:16.109Z,7.90
2022-11-08T02:44:43.446Z,7.75
2022-11-08T02:47:10.799Z,7.68
2022-11-08T02:49:38.305Z,7.62
2022-11-08T02:52:05.986Z,7.50
2022-11-08T02:54:33.354Z,7.53
2022-11-08T02:57:00.605Z,7.59
2022-11-08T02:59:27.906Z,7.63
2022-11-08T03:01:55.383Z,7.61
2022-11-08T03:04:22.749Z,7.64
2022-11-08T03:06:50.075Z,7.70
2022-11-08T03:09:17.511Z,7.70
2022-11-08T03:11:44.748Z,7.70
2022-11-08T03:14:12.002Z,7.65
2022-11-08T03:16:39.295Z,7.66
2022-11-08T03:19:06.495Z,7.68
2022-11-08T03:21:36.624Z,7.76
2022-11-08T03:24:05.787Z,7.71
2022-11-08T03:26:33.479Z,7.61
2022-11-08T03:29:00.648Z,7.52
2022-11-08T03:31:28.129Z,7.61
2022-11-08T03:33:55.339Z,7.71
2022-11-08T03:36:22.494Z,7.72
2022-11-08T03:38:50.749Z,7.79
2022-11-08T03:41:17.910Z,7.81
2022-11-08T03:43:45.086Z,7.91
2022-11-08T03:46:12.547Z,7.96
2022-11-08T03:48:40.292Z,8.01
2022-11-08T03:51:07.453Z,7.98
2022-11-08T03:53:34.616Z,7.99
2022-11-08T03:56:02.036Z,7.85
2022-11-08T03:58:29.366Z,7.88
2022-11-08T04:00:58.247Z,7.81
2022-11-08T04:03:25.564Z,7.73
2022-11-08T04:05:52.815Z,7.88
2022-11-08T04:08:20.454Z,7.79
2022-11-08T04:10:48.221Z,7.86
2022-11-08T04:13:53.774Z,7.98
2022-11-08T04:16:21.132Z,8.05
2022-11-08T04:19:07.093Z,7.93
2022-11-08T04:21:34.276Z,8.01
2022-11-08T04:24:01.515Z,7.94
2022-11-08T04:26:28.677Z,7.85
2022-11-08T04:28:55.991Z,7.81
2022-11-08T04:31:23.288Z,7.76
2022-11-08T04:33:50.638Z,7.86
2022-11-08T04:36:18.038Z,7.87
2022-11-08T04:38:52.311Z,7.93
2022-11-08T04:41:23.945Z,7.87
2022-11-08T04:43:55.040Z,7.79
2022-11-08T04:46:27.285Z,7.73
2022-11-08T04:49:00.418Z,7.76
2022-11-08T04:51:32.762Z,7.84
2022-11-08T04:54:02.903Z,7.84
2022-11-08T04:56:31.669Z,7.87
2022-11-08T04:59:01.109Z,7.94
2022-11-08T05:01:31.356Z,7.91
2022-11-08T05:03:58.903Z,8.07
2022-11-08T05:06:31.200Z,8.20
2022-11-08T05:09:00.388Z,8.11
2022-11-08T05:11:30.453Z,8.00
2022-11-08T05:13:58.350Z,8.01
2022-11-08T05:16:30.022Z,7.97
2022-11-08T05:18:57.685Z,8.03
2022-11-08T05:21:43.879Z,8.07
2022-11-08T05:24:15.980Z,8.05
2022-11-08T05:26:47.255Z,8.02
2022-11-08T05:29:17.029Z,7.97
2022-11-08T05:31:44.410Z,7.97
2022-11-08T05:34:11.611Z,8.07
2022-11-08T05:36:38.771Z,8.06
2022-11-08T05:39:06.280Z,7.98
2022-11-08T05:41:33.543Z,7.98
2022-11-08T05:44:00.814Z,7.98
2022-11-08T05:46:27.954Z,7.98
2022-11-08T05:48:55.537Z,8.01
2022-11-08T05:51:22.799Z,8.09
2022-11-08T05:53:49.966Z,8.09
2022-11-08T05:56:18.334Z,8.06
2022-11-08T05:58:46.232Z,7.98
2022-11-08T06:01:19.982Z,8.01
2022-11-08T06:03:48.091Z,8.08
2022-11-08T06:06:21.533Z,8.12
2022-11-08T06:08:51.499Z,8.12
2022-11-08T06:11:27.682Z,8.24
2022-11-08T06:13:56.201Z,8.21
2022-11-08T06:16:24.852Z,8.23
2022-11-08T06:18:52.259Z,8.29
2022-11-08T06:21:21.325Z,8.36
2022-11-08T06:23:53.507Z,8.38
2022-11-08T06:26:23.041Z,8.39
2022-11-08T06:28:50.961Z,8.40
2022-11-08T06:31:18.205Z,8.41
2022-11-08T06:33:46.197Z,8.43
2022-11-08T06:36:13.501Z,8.47
2022-11-08T06:38:40.739Z,8.42
2022-11-08T06:41:11.354Z,8.46
2022-11-08T06:43:38.664Z,8.55
2022-11-08T06:46:06.123Z,8.61
2022-11-08T06:48:36.042Z,8.63
2022-11-08T06:51:04.472Z,8.65
2022-11-08T06:53:33.105Z,8.66
2022-11-08T06:56:02.406Z,8.68
2022-11-08T06:58:31.114Z,8.68
2022-11-08T07:00:58.557Z,8.68
2022-11-08T07:03:25.909Z,8.68
2022-11-08T07:05:53.199Z,8.71
2022-11-08T07:08:24.346Z,8.73
2022-11-08T07:10:52.072Z,8.76
2022-11-08T07:13:20.418Z,8.74
2022-11-08T07:15:48.274Z,8.76
2022-11-08T07:18:19.143Z,8.83
2022-11-08T07:20:46.585Z,8.90
2022-11-08T07:23:14.308Z,8.94
2022-11-08T07:25:42.205Z,8.97
2022-11-08T07:28:18.546Z,9.03
2022-11-08T07:30:49.018Z,9.11
2022-11-08T07:33:17.487Z,9.17
2022-11-08T07:35:47.474Z,9.23
2022-11-08T07:38:15.268Z,9.27
2022-11-08T07:40:44.757Z,9.31
2022-11-08T07:43:13.072Z,9.30
2022-11-08T07:45:42.184Z,9.32
2022-11-08T07:48:13.989Z,9.36
2022-11-08T07:50:43.320Z,9.43
2022-11-08T07:53:11.231Z,9.50
2022-11-08T07:55:40.223Z,9.58
2022-11-08T07:58:12.286Z,9.60
2022-11-08T08:00:43.425Z,9.67
2022-11-08T08:03:14.146Z,9.73
2022-11-08T08:05:45.412Z,9.77
2022-11-08T08:08:14.426Z,9.78
2022-11-08T08:10:42.258Z,9.82
2022-11-08T08:13:09.899Z,9.81
2022-11-08T08:15:37.969Z,9.82
2022-11-08T08:18:08.044Z,9.86
2022-11-08T08:20:37.344Z,9.92
2022-11-08T08:23:04.800Z,9.96
2022-11-08T08:25:32.162Z,9.97
2022-11-08T08:28:03.453Z,10.05
2022-11-08T08:30:32.000Z,10.07
2022-11-08T08:33:32.175Z,10.15
2022-11-08T08:36:02.489Z,10.20
2022-11-08T08:38:35.020Z,10.21
2022-11-08T08:41:03.539Z,10.28
2022-11-08T08:43:34.317Z,10.33
2022-11-08T08:46:05.115Z,10.38
2022-11-08T08:48:38.895Z,10.45
2022-11-08T08:51:06.649Z,10.51
2022-11-08T08:53:36.174Z,10.51
2022-11-08T08:56:06.852Z,10.53
2022-11-08T08:58:35.660Z,10.54
2022-11-08T09:03:58.308Z,10.62
2022-11-08T09:06:25.996Z,10.58
2022-11-08T09:08:53.448Z,10.64
2022-11-08T09:11:20.962Z,10.68
2022-11-08T09:13:48.313Z,10.70
2022-11-08T09:16:15.703Z,10.68
2022-11-08T09:18:43.031Z,10.80
2022-11-08T09:21:10.511Z,10.87
2022-11-08T09:23:38.096Z,10.93
2022-11-08T09:26:06.528Z,10.93
2022-11-08T09:28:36.219Z,10.98
2022-11-08T09:31:10.748Z,10.86
2022-11-08T09:33:40.200Z,10.67
2022-11-08T09:36:12.685Z,10.72
2022-11-08T09:38:42.056Z,10.87
2022-11-08T09:41:44.015Z,11.08
2022-11-08T09:44:56.039Z,11.23
2022-11-08T09:47:40.051Z,11.22
2022-11-08T09:50:34.749Z,11.64
2022-11-08T09:53:24.158Z,11.91
2022-11-08T09:56:19.926Z,11.79
2022-11-08T09:59:04.947Z,11.69
2022-11-08T10:01:37.099Z,11.78
2022-11-08T10:04:15.621Z,11.71
2022-11-08T10:07:08.144Z,11.82
2022-11-08T10:10:22.841Z,12.07
2022-11-08T10:13:58.107Z,12.26
2022-11-08T10:16:42.631Z,12.51
2022-11-08T10:19:41.507Z,13.20
2022-11-08T10:22:47.100Z,13.13
2022-11-08T10:25:55.325Z,12.82
2022-11-08T10:28:32.829Z,13.08
2022-11-08T10:31:00.794Z,13.17
2022-11-08T10:33:43.234Z,13.11
2022-11-08T10:36:39.921Z,13.03
2022-11-08T10:39:16.592Z,13.10
2022-11-08T10:42:24.229Z,13.19
2022-11-08T10:44:51.871Z,13.47
2022-11-08T10:47:32.894Z,13.98
2022-11-08T10:50:04.064Z,14.07
2022-11-08T10:52:47.626Z,13.87
2022-11-08T10:55:38.563Z,13.82
2022-11-08T10:58:40.099Z,13.10
2022-11-08T11:01:28.366Z,13.07
2022-11-08T11:03:56.028Z,13.41
2022-11-08T11:06:33.343Z,13.46
2022-11-08T11:09:18.321Z,13.09
2022-11-08T11:12:02.600Z,13.35
2022-11-08T11:14:29.987Z,13.51
2022-11-08T11:17:15.484Z,13.58
2022-11-08T11:19:56.123Z,13.62
2022-11-08T11:22:34.457Z,13.72
2022-11-08T11:25:19.011Z,13.86
2022-11-08T11:27:57.932Z,13.70
2022-11-08T11:30:35.501Z,13.72
2022-11-08T11:33:26.361Z,13.80
2022-11-08T11:36:13.765Z,13.87
2022-11-08T11:39:27.656Z,13.75
2022-11-08T11:45:31.080Z,13.97
2022-11-08T11:48:05.894Z,13.65
2022-11-08T11:50:40.601Z,13.41
2022-11-08T11:53:23.146Z,13.39
2022-11-08T11:56:06.730Z,13.69
2022-11-08T11:59:27.692Z,13.98
2022-11-08T12:03:08.717Z,14.55
2022-11-08T12:06:02.646Z,14.56
2022-11-08T12:09:17.214Z,15.06
2022-11-08T12:12:25.901Z,15.16
2022-11-08T12:15:23.815Z,14.47
2022-11-08T12:18:41.423Z,14.33
2022-11-08T12:21:15.305Z,14.66
2022-11-08T12:24:14.896Z,14.85
2022-11-08T12:27:20.967Z,15.18
2022-11-08T12:30:12.426Z,15.29
2022-11-08T12:33:14.631Z,15.25
2022-11-08T12:36:22.037Z,15.25
2022-11-08T12:39:23.727Z,15.29
2022-11-08T12:42:20.703Z,15.33
2022-11-08T12:45:12.848Z,15.20
2022-11-08T12:47:46.068Z,14.94
2022-11-08T12:50:48.391Z,14.77
2022-11-08T12:53:48.807Z,14.30
2022-11-08T12:56:28.074Z,13.93
2022-11-08T12:58:56.118Z,14.15
2022-11-08T13:01:24.456Z,14.41
2022-11-08T13:05:03.877Z,14.82
2022-11-08T13:08:13.849Z,14.75
2022-11-08T13:11:01.575Z,14.85
2022-11-08T13:13:59.657Z,14.59
2022-11-08T13:16:41.556Z,14.46
2022-11-08T13:19:49.722Z,14.60
2022-11-08T13:22:32.031Z,14.92
2022-11-08T13:25:12.046Z,15.03
2022-11-08T13:27:45.215Z,14.81
2022-11-08T13:30:12.907Z,14.68
2022-11-08T13:33:08.017Z,14.86
2022-11-08T13:36:16.829Z,14.96
2022-11-08T13:39:31.142Z,15.09
2022-11-08T13:42:16.362Z,15.00
2022-11-08T13:44:55.469Z,14.98
2022-11-08T13:47:34.955Z,14.95
2022-11-08T13:50:27.435Z,14.78
2022-11-08T13:53:23.648Z,14.87
2022-11-08T13:56:08.910Z,14.92
2022-11-08T13:58:45.563Z,14.93
2022-11-08T14:01:18.920Z,15.03
2022-11-08T14:03:46.025Z,14.89
2022-11-08T14:06:36.907Z,14.91
2022-11-08T14:09:46.682Z,14.91
2022-11-08T14:13:17.756Z,15.01
2022-11-08T14:15:58.326Z,14.98
2022-11-08T14:18:30.830Z,14.59
2022-11-08T14:20:58.479Z,14.47
2022-11-08T14:23:32.080Z,14.42
2022-11-08T14:26:13.775Z,14.67
2022-11-08T14:28:46.112Z,14.85
2022-11-08T14:31:32.580Z,14.93
2022-11-08T14:34:02.251Z,14.82
2022-11-08T14:36:31.959Z,14.67
2022-11-08T14:39:17.616Z,14.59
2022-11-08T14:41:55.288Z,14.62
2022-11-08T14:44:23.623Z,14.68
2022-11-08T14:46:53.290Z,14.68
2022-11-08T14:49:33.977Z,14.63
2022-11-08T14:52:25.932Z,14.59
2022-11-08T14:55:09.165Z,14.40
2022-11-08T14:57:45.252Z,14.34
2022-11-08T15:00:24.241Z,14.35
2022-11-08T15:03:00.102Z,14.48
2022-11-08T15:05:35.743Z,14.46
2022-11-08T15:08:07.162Z,14.32
2022-11-08T15:10:34.709Z,14.26
2022-11-08T15:13:02.207Z,14.30
2022-11-08T15:15:33.186Z,14.19
2022-11-08T15:18:17.924Z,14.09
2022-11-08T15:21:06.926Z,14.09
2022-11-08T15:24:15.913Z,14.04
2022-11-08T15:27:12.787Z,13.90
2022-11-08T15:29:52.285Z,13.79
2022-11-08T15:32:22.291Z,13.73
2022-11-08T15:34:58.540Z,13.76
2022-11-08T15:37:39.709Z,13.75
2022-11-08T15:40:24.420Z,13.68
2022-11-08T15:42:53.102Z,13.63
2022-11-08T15:45:32.096Z,13.58
2022-11-08T15:48:24.396Z,13.59
2022-11-08T15:50:51.780Z,13.58
2022-11-08T15:53:20.020Z,13.46
2022-11-08T15:56:04.627Z,13.39
2022-11-08T15:58:39.788Z,13.35
2022-11-08T16:01:07.169Z,13.41
2022-11-08T16:03:34.753Z,13.36
2022-11-08T16:06:02.015Z,13.25
2022-11-08T16:08:29.314Z,13.21
2022-11-08T16:11:00.528Z,13.26
2022-11-08T16:13:33.138Z,13.25
2022-11-08T16:16:01.672Z,13.18
2022-11-08T16:18:32.296Z,13.14
2022-11-08T16:20:59.790Z,13.12
2022-11-08T16:23:27.062Z,13.10
2022-11-08T16:25:57.417Z,13.11
2022-11-08T16:28:34.517Z,13.09
2022-11-08T16:31:05.356Z,13.12
2022-11-08T16:33:35.247Z,13.07
2022-11-08T16:36:15.088Z,13.01
2022-11-08T16:38:48.944Z,12.90
2022-11-08T16:41:16.252Z,12.79
2022-11-08T16:43:43.627Z,12.80
2022-11-08T16:46:11.169Z,12.88
2022-11-08T16:48:44.956Z,12.87
2022-11-08T16:51:22.104Z,12.86
2022-11-08T16:53:49.868Z,12.85
2022-11-08T16:56:17.538Z,12.83
2022-11-08T16:58:45.403Z,12.78
2022-11-08T17:01:20.900Z,12.77
2022-11-08T17:03:48.146Z,12.79
2022-11-08T17:06:18.445Z,12.73
2022-11-08T17:08:49.179Z,12.72
2022-11-08T17:11:23.024Z,12.72
2022-11-08T17:13:52.661Z,12.69
2022-11-08T17:16:20.382Z,12.70
2022-11-08T17:18:52.484Z,12.70
2022-11-08T17:24:09.161Z,12.64
2022-11-08T17:26:36.344Z,12.62
2022-11-08T17:29:03.719Z,12.61
2022-11-08T17:31:30.876Z,12.59
2022-11-08T17:33:58.185Z,12.59
2022-11-08T17:36:25.536Z,12.63
2022-11-08T17:38:52.776Z,12.61
2022-11-08T17:41:20.072Z,12.56
2022-11-08T17:43:47.286Z,12.54
2022-11-08T17:46:14.953Z,12.57
2022-11-08T17:48:42.182Z,12.61
2022-11-08T17:51:11.748Z,12.60
2022-11-08T17:53:39.021Z,12.58
2022-11-08T17:56:07.032Z,12.55
2022-11-08T17:58:34.892Z,12.50
2022-11-08T18:01:06.006Z,12.41
2022-11-08T18:03:34.526Z,12.36
2022-11-08T18:06:07.239Z,12.35
2022-11-08T18:08:35.484Z,12.29
2022-11-08T18:11:04.041Z,12.22
2022-11-08T18:13:32.487Z,12.15
2022-11-08T18:16:10.003Z,12.14
2022-11-08T18:18:38.089Z,12.16
2022-11-08T18:21:07.358Z,12.22
2022-11-08T18:23:35.107Z,12.17
2022-11-08T18:26:02.474Z,12.09
2022-11-08T18:28:29.680Z,12.07
2022-11-08T18:31:20.614Z,12.06
2022-11-08T18:33:48.710Z,12.01
2022-11-08T18:36:20.538Z,11.98
2022-11-08T18:38:49.147Z,11.98
2022-11-08T18:41:30.105Z,12.03
2022-11-08T18:43:59.897Z,12.05
2022-11-08T18:46:34.879Z,12.10
2022-11-08T18:49:07.174Z,12.08
2022-11-08T18:51:34.612Z,12.05
2022-11-08T18:54:01.892Z,12.07
2022-11-08T18:56:29.162Z,12.10
2022-11-08T18:58:56.535Z,12.07
2022-11-08T19:01:24.486Z,12.03
2022-11-08T19:03:51.809Z,12.00
2022-11-08T19:06:19.541Z,12.02
2022-11-08T19:08:46.783Z,12.02
2022-11-08T19:11:14.855Z,11.99
2022-11-08T19:13:42.767Z,12.05
2022-11-08T19:16:18.989Z,12.10
2022-11-08T19:18:49.092Z,12.16
2022-11-08T19:21:23.548Z,12.21
2022-11-08T19:23:52.545Z,12.19
2022-11-08T19:26:23.680Z,12.17
2022-11-08T19:28:54.378Z,12.16
2022-11-08T19:31:25.044Z,12.14
2022-11-08T19:33:54.451Z,12.19
2022-11-08T19:36:25.968Z,12.25
2022-11-08T19:38:54.811Z,12.20
2022-11-08T19:41:27.524Z,12.12
2022-11-08T19:43:55.175Z,12.01
2022-11-08T19:46:29.341Z,11.97
2022-11-08T19:48:59.560Z,11.93
2022-11-08T19:51:32.002Z,11.87
2022-11-08T19:54:14.534Z,11.84
2022-11-08T19:59:29.736Z,11.82
2022-11-08T20:01:57.117Z,11.84
2022-11-08T20:04:27.694Z,11.86
2022-11-08T20:06:56.774Z,11.84
2022-11-08T20:09:30.286Z,11.81
2022-11-08T20:12:00.912Z,11.80
2022-11-08T20:14:31.836Z,11.78
2022-11-08T20:17:05.136Z,11.80
2022-11-08T20:19:34.522Z,11.82
2022-11-08T20:22:05.481Z,11.85
2022-11-08T20:24:35.743Z,11.86
2022-11-08T20:27:04.539Z,11.86
2022-11-08T20:29:33.553Z,11.85
2022-11-08T20:32:02.274Z,11.83
2022-11-08T20:34:32.390Z,11.83
2022-11-08T20:37:02.515Z,11.83
2022-11-08T20:39:31.139Z,11.81
2022-11-08T20:42:01.959Z,11.77
2022-11-08T20:44:31.683Z,11.73
2022-11-08T20:47:06.315Z,11.70
2022-11-08T20:49:35.105Z,11.69
2022-11-08T20:52:07.040Z,11.68
2022-11-08T20:54:39.903Z,11.68
2022-11-08T20:57:11.084Z,11.62
2022-11-08T20:59:39.396Z,11.61
2022-11-08T21:02:11.734Z,11.58
2022-11-08T21:04:40.629Z,11.58
2022-11-08T21:10:27.493Z,11.59
2022-11-08T21:12:53.612Z,11.56
2022-11-08T21:15:27.250Z,11.57
2022-11-08T21:17:56.158Z,11.53
2022-11-08T21:20:27.079Z,11.57
2022-11-08T21:22:56.043Z,11.56
2022-11-08T21:25:25.049Z,11.47
2022-11-08T21:27:53.779Z,11.45
2022-11-08T21:30:22.996Z,11.44
2022-11-08T21:32:51.475Z,11.44
2022-11-08T21:35:20.305Z,11.46
2022-11-08T21:37:54.232Z,11.42
2022-11-08T21:40:23.259Z,11.40
2022-11-08T21:42:50.472Z,11.38
2022-11-08T21:45:17.742Z,11.39
2022-11-08T21:47:53.452Z,11.40
2022-11-08T21:50:21.999Z,11.38
2022-11-08T21:52:49.500Z,11.36
2022-11-08T21:55:16.864Z,11.38
2022-11-08T21:57:44.225Z,11.33
2022-11-08T22:00:13.609Z,11.29
2022-11-08T22:02:42.156Z,11.27
2022-11-08T22:05:10.151Z,11.27
2022-11-08T22:07:37.528Z,11.28
2022-11-08T22:10:07.975Z,11.23
2022-11-08T22:12:35.217Z,11.22
2022-11-08T22:15:02.427Z,11.22
2022-11-08T22:17:29.602Z,11.19
2022-11-08T22:19:56.821Z,11.21
2022-11-08T22:22:24.029Z,11.22
2022-11-08T22:24:51.313Z,11.21
2022-11-08T22:27:18.540Z,11.19
2022-11-08T22:29:45.734Z,11.25
2022-11-08T22:32:13.055Z,11.31
2022-11-08T22:34:40.237Z,11.32
2022-11-08T22:37:07.373Z,11.28
2022-11-08T22:39:34.572Z,11.24
2022-11-08T22:42:01.819Z,11.29
2022-11-08T22:44:29.090Z,11.32
2022-11-08T22:46:56.304Z,11.33
2022-11-08T22:49:23.464Z,11.31
2022-11-08T22:51:50.683Z,11.29
2022-11-08T22:54:17.889Z,11.27
2022-11-08T22:56:45.199Z,11.24
2022-11-08T22:59:12.885Z,11.20
2022-11-08T23:01:40.277Z,11.17
2022-11-08T23:04:11.052Z,11.16
2022-11-08T23:06:41.448Z,11.17
2022-11-08T23:09:09.297Z,11.19
2022-11-08T23:11:55.005Z,11.20
2022-11-08T23:14:41.128Z,11.22
2022-11-08T23:17:08.522Z,11.23
2022-11-08T23:19:54.346Z,11.21
2022-11-08T23:22:40.808Z,11.18
2022-11-08T23:25:08.795Z,11.19
2022-11-08T23:27:54.479Z,11.26
2022-11-08T23:30:40.634Z,11.31
2022-11-08T23:33:07.836Z,11.33
2022-11-08T23:35:35.204Z,11.30
2022-11-08T23:38:02.560Z,11.24
2022-11-08T23:40:48.360Z,11.19
2022-11-08T23:43:38.409Z,11.15
2022-11-08T23:46:12.116Z,11.14
2022-11-08T23:48:40.774Z,11.16
2022-11-08T23:51:08.335Z,11.14
2022-11-08T23:53:37.563Z,11.13
2022-11-08T23:56:05.917Z,11.11
2022-11-08T23:58:33.990Z,11.05
